sensor_id;sensor_type;location;lat;lon;timestamp;P1;durP1;ratioP1;P2;durP2;ratioP2
64873;SDS011;51367;45.204;38.576;2023-03-23T00:01:08;5.97;;;5.38;;
64873;SDS011;51367;45.204;38.576;2023-03-23T00:03:36;9.30;;;5.93;;
64873;SDS011;51367;45.204;38.576;2023-03-23T00:06:02;5.55;;;5.07;;
64873;SDS011;51367;45.204;38.576;2023-03-23T00:08:33;21.23;;;5.85;;
64873;SDS011;51367;45.204;38.576;2023-03-23T00:13:29;5.13;;;4.38;;
64873;SDS011;51367;45.204;38.576;2023-03-23T00:15:56;4.97;;;4.13;;
64873;SDS011;51367;45.204;38.576;2023-03-23T00:18:22;16.17;;;5.68;;
64873;SDS011;51367;45.204;38.576;2023-03-23T00:20:49;34.50;;;6.78;;
64873;SDS011;51367;45.204;38.576;2023-03-23T00:23:20;6.03;;;5.43;;
64873;SDS011;51367;45.204;38.576;2023-03-23T00:25:50;6.68;;;6.00;;
64873;SDS011;51367;45.204;38.576;2023-03-23T00:28:18;9.05;;;5.45;;
64873;SDS011;51367;45.204;38.576;2023-03-23T00:31:00;7.20;;;6.43;;
64873;SDS011;51367;45.204;38.576;2023-03-23T00:33:28;28.20;;;5.18;;
64873;SDS011;51367;45.204;38.576;2023-03-23T00:36:05;14.23;;;6.68;;
64873;SDS011;51367;45.204;38.576;2023-03-23T00:38:34;7.95;;;5.32;;
64873;SDS011;51367;45.204;38.576;2023-03-23T00:41:01;18.60;;;7.22;;
64873;SDS011;51367;45.204;38.576;2023-03-23T00:43:28;7.00;;;6.20;;
64873;SDS011;51367;45.204;38.576;2023-03-23T00:45:57;10.27;;;5.75;;
64873;SDS011;51367;45.204;38.576;2023-03-23T00:48:26;9.35;;;6.88;;
64873;SDS011;51367;45.204;38.576;2023-03-23T00:50:53;3.72;;;3.35;;
64873;SDS011;51367;45.204;38.576;2023-03-23T00:53:20;8.73;;;7.03;;
64873;SDS011;51367;45.204;38.576;2023-03-23T00:55:47;8.50;;;5.88;;
64873;SDS011;51367;45.204;38.576;2023-03-23T00:58:14;10.80;;;7.90;;
64873;SDS011;51367;45.204;38.576;2023-03-23T01:00:42;24.98;;;7.13;;
64873;SDS011;51367;45.204;38.576;2023-03-23T01:03:08;27.30;;;7.63;;
64873;SDS011;51367;45.204;38.576;2023-03-23T01:05:44;26.73;;;5.63;;
64873;SDS011;51367;45.204;38.576;2023-03-23T01:08:13;16.20;;;5.68;;
64873;SDS011;51367;45.204;38.576;2023-03-23T01:10:39;9.32;;;7.32;;
64873;SDS011;51367;45.204;38.576;2023-03-23T01:13:06;14.07;;;6.55;;
64873;SDS011;51367;45.204;38.576;2023-03-23T01:15:33;7.18;;;5.80;;
64873;SDS011;51367;45.204;38.576;2023-03-23T01:17:59;8.05;;;6.18;;
64873;SDS011;51367;45.204;38.576;2023-03-23T01:20:25;14.80;;;5.68;;
64873;SDS011;51367;45.204;38.576;2023-03-23T01:22:57;11.95;;;7.13;;
64873;SDS011;51367;45.204;38.576;2023-03-23T01:25:30;9.80;;;7.60;;
64873;SDS011;51367;45.204;38.576;2023-03-23T01:27:57;18.63;;;6.55;;
64873;SDS011;51367;45.204;38.576;2023-03-23T01:30:24;5.47;;;4.50;;
64873;SDS011;51367;45.204;38.576;2023-03-23T01:32:51;18.23;;;7.82;;
64873;SDS011;51367;45.204;38.576;2023-03-23T01:35:17;28.90;;;7.25;;
64873;SDS011;51367;45.204;38.576;2023-03-23T01:37:45;18.15;;;6.10;;
64873;SDS011;51367;45.204;38.576;2023-03-23T01:40:13;7.47;;;6.80;;
64873;SDS011;51367;45.204;38.576;2023-03-23T01:42:41;10.77;;;8.02;;
64873;SDS011;51367;45.204;38.576;2023-03-23T01:47:47;10.63;;;9.02;;
64873;SDS011;51367;45.204;38.576;2023-03-23T01:50:17;7.45;;;6.70;;
64873;SDS011;51367;45.204;38.576;2023-03-23T01:52:45;6.80;;;6.13;;
64873;SDS011;51367;45.204;38.576;2023-03-23T01:55:12;15.43;;;7.32;;
64873;SDS011;51367;45.204;38.576;2023-03-23T01:57:38;7.18;;;6.45;;
64873;SDS011;51367;45.204;38.576;2023-03-23T02:00:06;6.25;;;5.65;;
64873;SDS011;51367;45.204;38.576;2023-03-23T02:02:41;8.70;;;6.40;;
64873;SDS011;51367;45.204;38.576;2023-03-23T02:05:19;8.70;;;6.07;;
64873;SDS011;51367;45.204;38.576;2023-03-23T02:07:50;14.93;;;7.10;;
64873;SDS011;51367;45.204;38.576;2023-03-23T02:10:18;8.55;;;6.05;;
64873;SDS011;51367;45.204;38.576;2023-03-23T02:12:43;8.75;;;6.28;;
64873;SDS011;51367;45.204;38.576;2023-03-23T02:15:11;24.40;;;7.47;;
64873;SDS011;51367;45.204;38.576;2023-03-23T02:17:51;9.27;;;8.25;;
64873;SDS011;51367;45.204;38.576;2023-03-23T02:33:42;10.50;;;8.45;;
64873;SDS011;51367;45.204;38.576;2023-03-23T02:42:08;13.38;;;6.50;;
64873;SDS011;51367;45.204;38.576;2023-03-23T02:44:37;10.93;;;7.70;;
64873;SDS011;51367;45.204;38.576;2023-03-23T02:47:07;17.05;;;7.78;;
64873;SDS011;51367;45.204;38.576;2023-03-23T02:49:36;8.32;;;5.90;;
64873;SDS011;51367;45.204;38.576;2023-03-23T02:52:10;13.60;;;8.73;;
64873;SDS011;51367;45.204;38.576;2023-03-23T02:54:42;8.90;;;7.03;;
64873;SDS011;51367;45.204;38.576;2023-03-23T02:57:11;17.55;;;6.35;;
64873;SDS011;51367;45.204;38.576;2023-03-23T02:59:40;7.90;;;6.50;;
64873;SDS011;51367;45.204;38.576;2023-03-23T03:07:47;6.22;;;5.40;;
64873;SDS011;51367;45.204;38.576;2023-03-23T03:10:31;17.50;;;7.53;;
64873;SDS011;51367;45.204;38.576;2023-03-23T03:18:52;8.55;;;6.97;;
64873;SDS011;51367;45.204;38.576;2023-03-23T03:21:29;7.47;;;6.38;;
64873;SDS011;51367;45.204;38.576;2023-03-23T03:24:00;18.35;;;7.10;;
64873;SDS011;51367;45.204;38.576;2023-03-23T03:26:28;8.00;;;6.30;;
64873;SDS011;51367;45.204;38.576;2023-03-23T03:29:10;7.65;;;6.10;;
64873;SDS011;51367;45.204;38.576;2023-03-23T03:31:42;16.05;;;5.03;;
64873;SDS011;51367;45.204;38.576;2023-03-23T03:34:12;15.15;;;6.53;;
64873;SDS011;51367;45.204;38.576;2023-03-23T03:36:46;14.27;;;6.57;;
64873;SDS011;51367;45.204;38.576;2023-03-23T03:39:14;7.95;;;6.68;;
64873;SDS011;51367;45.204;38.576;2023-03-23T03:41:43;8.07;;;6.18;;
64873;SDS011;51367;45.204;38.576;2023-03-23T03:44:09;7.88;;;6.07;;
64873;SDS011;51367;45.204;38.576;2023-03-23T03:46:36;6.30;;;5.68;;
64873;SDS011;51367;45.204;38.576;2023-03-23T03:49:03;9.63;;;6.43;;
64873;SDS011;51367;45.204;38.576;2023-03-23T03:51:34;16.45;;;6.85;;
64873;SDS011;51367;45.204;38.576;2023-03-23T03:54:02;6.20;;;5.60;;
64873;SDS011;51367;45.204;38.576;2023-03-23T03:56:28;24.42;;;6.32;;
64873;SDS011;51367;45.204;38.576;2023-03-23T03:59:07;4.63;;;3.25;;
64873;SDS011;51367;45.204;38.576;2023-03-23T04:01:57;21.05;;;6.50;;
64873;SDS011;51367;45.204;38.576;2023-03-23T04:04:24;12.07;;;6.90;;
64873;SDS011;51367;45.204;38.576;2023-03-23T04:06:50;12.15;;;6.00;;
64873;SDS011;51367;45.204;38.576;2023-03-23T04:09:16;8.68;;;7.20;;
64873;SDS011;51367;45.204;38.576;2023-03-23T04:11:41;12.50;;;5.63;;
64873;SDS011;51367;45.204;38.576;2023-03-23T04:14:43;6.85;;;4.35;;
64873;SDS011;51367;45.204;38.576;2023-03-23T04:17:09;6.22;;;5.63;;
64873;SDS011;51367;45.204;38.576;2023-03-23T04:19:36;12.27;;;6.82;;
64873;SDS011;51367;45.204;38.576;2023-03-23T04:22:04;7.07;;;5.32;;
64873;SDS011;51367;45.204;38.576;2023-03-23T04:24:34;10.75;;;5.55;;
64873;SDS011;51367;45.204;38.576;2023-03-23T04:27:03;8.05;;;6.30;;
64873;SDS011;51367;45.204;38.576;2023-03-23T04:29:33;11.15;;;6.93;;
64873;SDS011;51367;45.204;38.576;2023-03-23T04:32:17;6.70;;;5.43;;
64873;SDS011;51367;45.204;38.576;2023-03-23T04:34:49;11.35;;;5.55;;
64873;SDS011;51367;45.204;38.576;2023-03-23T04:37:16;6.03;;;4.82;;
64873;SDS011;51367;45.204;38.576;2023-03-23T04:39:42;21.95;;;6.10;;
64873;SDS011;51367;45.204;38.576;2023-03-23T04:42:12;6.80;;;4.85;;
64873;SDS011;51367;45.204;38.576;2023-03-23T04:44:57;10.52;;;6.40;;
64873;SDS011;51367;45.204;38.576;2023-03-23T04:47:31;12.18;;;5.20;;
64873;SDS011;51367;45.204;38.576;2023-03-23T04:50:07;10.13;;;6.15;;
64873;SDS011;51367;45.204;38.576;2023-03-23T04:52:36;7.38;;;6.15;;
64873;SDS011;51367;45.204;38.576;2023-03-23T04:55:12;10.85;;;6.43;;
64873;SDS011;51367;45.204;38.576;2023-03-23T04:57:41;7.20;;;4.97;;
64873;SDS011;51367;45.204;38.576;2023-03-23T05:00:37;8.32;;;5.20;;
64873;SDS011;51367;45.204;38.576;2023-03-23T05:03:03;9.10;;;6.47;;
64873;SDS011;51367;45.204;38.576;2023-03-23T05:05:31;6.45;;;5.88;;
64873;SDS011;51367;45.204;38.576;2023-03-23T05:08:04;22.38;;;6.28;;
64873;SDS011;51367;45.204;38.576;2023-03-23T05:10:34;17.95;;;6.35;;
64873;SDS011;51367;45.204;38.576;2023-03-23T05:13:05;12.15;;;7.03;;
64873;SDS011;51367;45.204;38.576;2023-03-23T05:15:32;12.90;;;7.88;;
64873;SDS011;51367;45.204;38.576;2023-03-23T05:17:59;12.43;;;7.32;;
64873;SDS011;51367;45.204;38.576;2023-03-23T05:20:26;10.20;;;6.30;;
64873;SDS011;51367;45.204;38.576;2023-03-23T05:22:58;6.30;;;5.47;;
64873;SDS011;51367;45.204;38.576;2023-03-23T05:25:32;7.95;;;6.50;;
64873;SDS011;51367;45.204;38.576;2023-03-23T05:28:10;7.18;;;6.18;;
64873;SDS011;51367;45.204;38.576;2023-03-23T05:31:01;7.53;;;6.35;;
64873;SDS011;51367;45.204;38.576;2023-03-23T05:33:30;18.65;;;10.35;;
64873;SDS011;51367;45.204;38.576;2023-03-23T05:36:02;7.60;;;6.77;;
64873;SDS011;51367;45.204;38.576;2023-03-23T05:38:39;9.23;;;7.65;;
64873;SDS011;51367;45.204;38.576;2023-03-23T05:41:14;8.10;;;7.18;;
64873;SDS011;51367;45.204;38.576;2023-03-23T05:43:41;10.77;;;6.63;;
64873;SDS011;51367;45.204;38.576;2023-03-23T05:46:21;12.00;;;7.82;;
64873;SDS011;51367;45.204;38.576;2023-03-23T05:48:48;14.27;;;9.00;;
64873;SDS011;51367;45.204;38.576;2023-03-23T05:51:17;13.63;;;8.25;;
64873;SDS011;51367;45.204;38.576;2023-03-23T05:53:44;8.85;;;7.10;;
64873;SDS011;51367;45.204;38.576;2023-03-23T05:56:14;15.50;;;8.13;;
64873;SDS011;51367;45.204;38.576;2023-03-23T05:58:58;14.60;;;6.45;;
64873;SDS011;51367;45.204;38.576;2023-03-23T06:01:26;10.02;;;5.82;;
64873;SDS011;51367;45.204;38.576;2023-03-23T06:03:52;15.38;;;10.13;;
64873;SDS011;51367;45.204;38.576;2023-03-23T06:06:25;12.43;;;8.82;;
64873;SDS011;51367;45.204;38.576;2023-03-23T06:09:03;10.50;;;8.43;;
64873;SDS011;51367;45.204;38.576;2023-03-23T06:11:42;14.38;;;8.98;;
64873;SDS011;51367;45.204;38.576;2023-03-23T06:14:30;5.93;;;5.20;;
64873;SDS011;51367;45.204;38.576;2023-03-23T06:16:57;12.20;;;8.50;;
64873;SDS011;51367;45.204;38.576;2023-03-23T06:19:23;10.18;;;6.97;;
64873;SDS011;51367;45.204;38.576;2023-03-23T06:22:14;13.15;;;7.50;;
64873;SDS011;51367;45.204;38.576;2023-03-23T06:25:00;10.23;;;7.05;;
64873;SDS011;51367;45.204;38.576;2023-03-23T06:27:34;9.82;;;7.38;;
64873;SDS011;51367;45.204;38.576;2023-03-23T06:30:03;15.30;;;6.95;;
64873;SDS011;51367;45.204;38.576;2023-03-23T06:32:31;14.65;;;7.70;;
64873;SDS011;51367;45.204;38.576;2023-03-23T06:34:58;10.48;;;6.32;;
64873;SDS011;51367;45.204;38.576;2023-03-23T06:37:53;10.65;;;7.47;;
64873;SDS011;51367;45.204;38.576;2023-03-23T06:40:30;8.45;;;6.53;;
64873;SDS011;51367;45.204;38.576;2023-03-23T06:42:57;17.33;;;10.63;;
64873;SDS011;51367;45.204;38.576;2023-03-23T06:45:53;10.77;;;6.13;;
64873;SDS011;51367;45.204;38.576;2023-03-23T06:48:38;8.10;;;5.72;;
64873;SDS011;51367;45.204;38.576;2023-03-23T06:51:05;16.90;;;9.80;;
64873;SDS011;51367;45.204;38.576;2023-03-23T06:53:32;8.73;;;7.82;;
64873;SDS011;51367;45.204;38.576;2023-03-23T06:55:59;8.23;;;6.88;;
64873;SDS011;51367;45.204;38.576;2023-03-23T06:58:26;11.43;;;6.90;;
64873;SDS011;51367;45.204;38.576;2023-03-23T07:00:58;8.90;;;6.90;;
64873;SDS011;51367;45.204;38.576;2023-03-23T07:03:37;13.93;;;7.90;;
64873;SDS011;51367;45.204;38.576;2023-03-23T07:06:07;13.52;;;8.18;;
64873;SDS011;51367;45.204;38.576;2023-03-23T07:11:11;17.73;;;9.10;;
64873;SDS011;51367;45.204;38.576;2023-03-23T07:13:38;13.25;;;6.15;;
64873;SDS011;51367;45.204;38.576;2023-03-23T07:16:06;18.02;;;10.32;;
64873;SDS011;51367;45.204;38.576;2023-03-23T07:18:33;7.57;;;6.75;;
64873;SDS011;51367;45.204;38.576;2023-03-23T07:21:02;19.55;;;11.15;;
64873;SDS011;51367;45.204;38.576;2023-03-23T07:23:30;18.48;;;7.13;;
64873;SDS011;51367;45.204;38.576;2023-03-23T07:26:04;18.13;;;11.75;;
64873;SDS011;51367;45.204;38.576;2023-03-23T07:28:36;16.07;;;10.83;;
64873;SDS011;51367;45.204;38.576;2023-03-23T07:31:17;9.88;;;6.85;;
64873;SDS011;51367;45.204;38.576;2023-03-23T07:33:43;12.45;;;9.90;;
64873;SDS011;51367;45.204;38.576;2023-03-23T07:36:10;10.63;;;7.50;;
64873;SDS011;51367;45.204;38.576;2023-03-23T07:38:36;14.15;;;7.55;;
64873;SDS011;51367;45.204;38.576;2023-03-23T07:41:03;29.73;;;19.27;;
64873;SDS011;51367;45.204;38.576;2023-03-23T07:43:30;16.52;;;10.57;;
64873;SDS011;51367;45.204;38.576;2023-03-23T07:46:18;8.50;;;6.90;;
64873;SDS011;51367;45.204;38.576;2023-03-23T07:48:55;11.90;;;6.53;;
64873;SDS011;51367;45.204;38.576;2023-03-23T07:51:26;16.13;;;11.02;;
64873;SDS011;51367;45.204;38.576;2023-03-23T07:53:54;7.78;;;6.63;;
64873;SDS011;51367;45.204;38.576;2023-03-23T07:56:40;12.02;;;6.63;;
64873;SDS011;51367;45.204;38.576;2023-03-23T07:59:13;20.27;;;13.52;;
64873;SDS011;51367;45.204;38.576;2023-03-23T08:01:42;15.48;;;8.10;;
64873;SDS011;51367;45.204;38.576;2023-03-23T08:04:34;10.25;;;7.47;;
64873;SDS011;51367;45.204;38.576;2023-03-23T08:07:36;7.90;;;6.72;;
64873;SDS011;51367;45.204;38.576;2023-03-23T08:10:40;9.20;;;6.85;;
64873;SDS011;51367;45.204;38.576;2023-03-23T08:13:35;11.27;;;7.75;;
64873;SDS011;51367;45.204;38.576;2023-03-23T08:16:21;6.90;;;6.10;;
64873;SDS011;51367;45.204;38.576;2023-03-23T08:19:19;9.13;;;7.13;;
64873;SDS011;51367;45.204;38.576;2023-03-23T08:22:05;8.95;;;6.53;;
64873;SDS011;51367;45.204;38.576;2023-03-23T08:24:55;10.55;;;6.78;;
64873;SDS011;51367;45.204;38.576;2023-03-23T08:27:35;10.00;;;7.32;;
64873;SDS011;51367;45.204;38.576;2023-03-23T08:30:14;12.00;;;6.68;;
64873;SDS011;51367;45.204;38.576;2023-03-23T08:33:00;12.32;;;8.02;;
64873;SDS011;51367;45.204;38.576;2023-03-23T08:35:56;11.02;;;6.32;;
64873;SDS011;51367;45.204;38.576;2023-03-23T08:38:47;14.80;;;7.60;;
64873;SDS011;51367;45.204;38.576;2023-03-23T08:41:40;6.03;;;5.50;;
64873;SDS011;51367;45.204;38.576;2023-03-23T08:44:41;9.82;;;8.15;;
64873;SDS011;51367;45.204;38.576;2023-03-23T08:47:45;9.70;;;6.97;;
64873;SDS011;51367;45.204;38.576;2023-03-23T08:50:32;9.25;;;7.53;;
64873;SDS011;51367;45.204;38.576;2023-03-23T08:53:08;18.42;;;8.15;;
64873;SDS011;51367;45.204;38.576;2023-03-23T08:55:40;10.90;;;7.10;;
64873;SDS011;51367;45.204;38.576;2023-03-23T08:58:11;10.45;;;6.10;;
64873;SDS011;51367;45.204;38.576;2023-03-23T09:01:03;10.10;;;6.38;;
64873;SDS011;51367;45.204;38.576;2023-03-23T09:03:50;14.00;;;6.70;;
64873;SDS011;51367;45.204;38.576;2023-03-23T09:06:26;10.02;;;5.38;;
64873;SDS011;51367;45.204;38.576;2023-03-23T09:08:53;8.63;;;5.18;;
64873;SDS011;51367;45.204;38.576;2023-03-23T09:11:21;6.60;;;5.35;;
64873;SDS011;51367;45.204;38.576;2023-03-23T09:13:47;13.88;;;6.32;;
64873;SDS011;51367;45.204;38.576;2023-03-23T09:16:13;8.75;;;5.50;;
64873;SDS011;51367;45.204;38.576;2023-03-23T09:18:39;5.97;;;5.43;;
64873;SDS011;51367;45.204;38.576;2023-03-23T09:21:05;5.90;;;5.30;;
64873;SDS011;51367;45.204;38.576;2023-03-23T09:23:31;7.93;;;5.30;;
64873;SDS011;51367;45.204;38.576;2023-03-23T09:25:59;6.93;;;5.05;;
64873;SDS011;51367;45.204;38.576;2023-03-23T09:28:26;7.60;;;4.18;;
64873;SDS011;51367;45.204;38.576;2023-03-23T09:30:54;6.68;;;4.85;;
64873;SDS011;51367;45.204;38.576;2023-03-23T09:33:22;7.28;;;5.93;;
64873;SDS011;51367;45.204;38.576;2023-03-23T09:35:49;6.95;;;5.72;;
64873;SDS011;51367;45.204;38.576;2023-03-23T09:38:15;8.60;;;4.90;;
64873;SDS011;51367;45.204;38.576;2023-03-23T09:40:44;8.68;;;5.72;;
64873;SDS011;51367;45.204;38.576;2023-03-23T09:43:27;5.70;;;4.18;;
64873;SDS011;51367;45.204;38.576;2023-03-23T09:46:14;7.70;;;5.13;;
64873;SDS011;51367;45.204;38.576;2023-03-23T09:49:01;7.63;;;6.35;;
64873;SDS011;51367;45.204;38.576;2023-03-23T09:56:57;9.20;;;4.72;;
64873;SDS011;51367;45.204;38.576;2023-03-23T10:02:25;7.13;;;5.10;;
64873;SDS011;51367;45.204;38.576;2023-03-23T10:04:54;6.72;;;4.80;;
64873;SDS011;51367;45.204;38.576;2023-03-23T10:07:24;8.10;;;5.30;;
64873;SDS011;51367;45.204;38.576;2023-03-23T10:09:53;9.45;;;5.32;;
64873;SDS011;51367;45.204;38.576;2023-03-23T10:15:09;7.75;;;4.70;;
64873;SDS011;51367;45.204;38.576;2023-03-23T10:20:46;7.82;;;5.55;;
64873;SDS011;51367;45.204;38.576;2023-03-23T10:24:03;10.32;;;5.28;;
64873;SDS011;51367;45.204;38.576;2023-03-23T10:28:48;6.53;;;5.60;;
64873;SDS011;51367;45.204;38.576;2023-03-23T10:31:31;6.15;;;5.50;;
64873;SDS011;51367;45.204;38.576;2023-03-23T10:34:13;5.30;;;4.50;;
64873;SDS011;51367;45.204;38.576;2023-03-23T10:37:07;6.25;;;4.63;;
64873;SDS011;51367;45.204;38.576;2023-03-23T10:39:56;9.90;;;6.05;;
64873;SDS011;51367;45.204;38.576;2023-03-23T10:42:32;10.18;;;5.20;;
64873;SDS011;51367;45.204;38.576;2023-03-23T10:45:00;8.93;;;5.43;;
64873;SDS011;51367;45.204;38.576;2023-03-23T10:47:53;7.45;;;5.85;;
64873;SDS011;51367;45.204;38.576;2023-03-23T10:50:28;6.70;;;5.50;;
64873;SDS011;51367;45.204;38.576;2023-03-23T10:52:58;7.18;;;6.18;;
64873;SDS011;51367;45.204;38.576;2023-03-23T10:55:34;8.82;;;7.00;;
64873;SDS011;51367;45.204;38.576;2023-03-23T10:58:07;7.13;;;5.50;;
64873;SDS011;51367;45.204;38.576;2023-03-23T11:00:43;8.85;;;6.00;;
64873;SDS011;51367;45.204;38.576;2023-03-23T11:08:21;7.78;;;6.07;;
64873;SDS011;51367;45.204;38.576;2023-03-23T11:10:53;6.82;;;6.22;;
64873;SDS011;51367;45.204;38.576;2023-03-23T11:13:27;7.87;;;6.67;;
64873;SDS011;51367;45.204;38.576;2023-03-23T11:15:55;8.95;;;7.25;;
64873;SDS011;51367;45.204;38.576;2023-03-23T11:20:54;8.32;;;7.25;;
64873;SDS011;51367;45.204;38.576;2023-03-23T11:23:29;11.45;;;5.97;;
64873;SDS011;51367;45.204;38.576;2023-03-23T11:26:23;9.48;;;7.55;;
64873;SDS011;51367;45.204;38.576;2023-03-23T11:31:44;12.82;;;6.35;;
64873;SDS011;51367;45.204;38.576;2023-03-23T11:34:21;9.00;;;5.95;;
64873;SDS011;51367;45.204;38.576;2023-03-23T11:37:00;7.70;;;5.80;;
64873;SDS011;51367;45.204;38.576;2023-03-23T11:39:46;14.20;;;7.60;;
64873;SDS011;51367;45.204;38.576;2023-03-23T11:42:24;12.43;;;6.50;;
64873;SDS011;51367;45.204;38.576;2023-03-23T11:44:53;11.55;;;6.68;;
64873;SDS011;51367;45.204;38.576;2023-03-23T11:47:35;7.70;;;5.35;;
64873;SDS011;51367;45.204;38.576;2023-03-23T11:50:11;8.63;;;6.90;;
64873;SDS011;51367;45.204;38.576;2023-03-23T11:52:51;7.40;;;5.87;;
64873;SDS011;51367;45.204;38.576;2023-03-23T11:58:07;6.68;;;5.45;;
64873;SDS011;51367;45.204;38.576;2023-03-23T12:00:40;5.93;;;5.03;;
64873;SDS011;51367;45.204;38.576;2023-03-23T12:04:13;6.22;;;4.20;;
64873;SDS011;51367;45.204;38.576;2023-03-23T12:06:38;7.13;;;5.75;;
64873;SDS011;51367;45.204;38.576;2023-03-23T12:35:53;7.85;;;6.47;;
64873;SDS011;51367;45.204;38.576;2023-03-23T12:38:43;16.80;;;6.80;;
64873;SDS011;51367;45.204;38.576;2023-03-23T12:41:27;12.18;;;6.00;;
64873;SDS011;51367;45.204;38.576;2023-03-23T12:44:10;8.80;;;5.50;;
64873;SDS011;51367;45.204;38.576;2023-03-23T12:49:19;8.13;;;6.28;;
64873;SDS011;51367;45.204;38.576;2023-03-23T12:52:10;17.30;;;6.35;;
64873;SDS011;51367;45.204;38.576;2023-03-23T12:55:06;5.82;;;5.07;;
64873;SDS011;51367;45.204;38.576;2023-03-23T12:57:55;9.25;;;5.57;;
64873;SDS011;51367;45.204;38.576;2023-03-23T13:06:15;7.60;;;6.00;;
64873;SDS011;51367;45.204;38.576;2023-03-23T13:11:49;5.88;;;5.20;;
64873;SDS011;51367;45.204;38.576;2023-03-23T13:14:25;8.13;;;5.65;;
64873;SDS011;51367;45.204;38.576;2023-03-23T13:25:55;7.65;;;5.68;;
64873;SDS011;51367;45.204;38.576;2023-03-23T13:28:46;5.60;;;4.43;;
64873;SDS011;51367;45.204;38.576;2023-03-23T13:31:17;6.47;;;5.00;;
64873;SDS011;51367;45.204;38.576;2023-03-23T13:33:51;11.73;;;4.43;;
64873;SDS011;51367;45.204;38.576;2023-03-23T13:36:29;11.27;;;5.22;;
64873;SDS011;51367;45.204;38.576;2023-03-23T13:39:04;6.70;;;5.60;;
64873;SDS011;51367;45.204;38.576;2023-03-23T13:42:01;16.90;;;4.32;;
64873;SDS011;51367;45.204;38.576;2023-03-23T13:49:52;5.13;;;4.45;;
64873;SDS011;51367;45.204;38.576;2023-03-23T13:54:47;5.85;;;5.05;;
64873;SDS011;51367;45.204;38.576;2023-03-23T13:59:59;8.45;;;4.72;;
64873;SDS011;51367;45.204;38.576;2023-03-23T14:02:36;14.93;;;5.53;;
64873;SDS011;51367;45.204;38.576;2023-03-23T14:05:10;4.97;;;4.47;;
64873;SDS011;51367;45.204;38.576;2023-03-23T14:07:55;11.95;;;5.63;;
64873;SDS011;51367;45.204;38.576;2023-03-23T14:10:31;6.63;;;5.70;;
64873;SDS011;51367;45.204;38.576;2023-03-23T14:13:14;8.15;;;5.35;;
64873;SDS011;51367;45.204;38.576;2023-03-23T14:15:57;8.93;;;4.47;;
64873;SDS011;51367;45.204;38.576;2023-03-23T14:18:35;7.72;;;6.05;;
64873;SDS011;51367;45.204;38.576;2023-03-23T14:21:04;6.68;;;4.93;;
64873;SDS011;51367;45.204;38.576;2023-03-23T14:23:32;7.25;;;4.80;;
64873;SDS011;51367;45.204;38.576;2023-03-23T14:26:00;9.63;;;6.10;;
64873;SDS011;51367;45.204;38.576;2023-03-23T14:28:36;6.45;;;4.53;;
64873;SDS011;51367;45.204;38.576;2023-03-23T14:31:18;5.78;;;5.25;;
64873;SDS011;51367;45.204;38.576;2023-03-23T14:33:46;6.53;;;4.80;;
64873;SDS011;51367;45.204;38.576;2023-03-23T14:36:14;6.65;;;5.40;;
64873;SDS011;51367;45.204;38.576;2023-03-23T14:38:46;6.53;;;5.20;;
64873;SDS011;51367;45.204;38.576;2023-03-23T14:41:12;9.90;;;7.30;;
64873;SDS011;51367;45.204;38.576;2023-03-23T14:43:38;5.47;;;4.97;;
64873;SDS011;51367;45.204;38.576;2023-03-23T14:46:06;5.78;;;4.55;;
64873;SDS011;51367;45.204;38.576;2023-03-23T14:48:34;7.53;;;5.18;;
64873;SDS011;51367;45.204;38.576;2023-03-23T14:51:03;7.03;;;4.82;;
64873;SDS011;51367;45.204;38.576;2023-03-23T14:53:37;6.63;;;4.70;;
64873;SDS011;51367;45.204;38.576;2023-03-23T14:56:11;4.82;;;4.32;;
64873;SDS011;51367;45.204;38.576;2023-03-23T14:58:42;4.75;;;4.20;;
64873;SDS011;51367;45.204;38.576;2023-03-23T15:03:57;4.13;;;3.72;;
64873;SDS011;51367;45.204;38.576;2023-03-23T15:06:29;8.65;;;4.18;;
64873;SDS011;51367;45.204;38.576;2023-03-23T15:08:58;5.80;;;4.25;;
64873;SDS011;51367;45.204;38.576;2023-03-23T15:11:30;9.43;;;4.65;;
64873;SDS011;51367;45.204;38.576;2023-03-23T15:14:00;6.30;;;3.97;;
64873;SDS011;51367;45.204;38.576;2023-03-23T15:16:49;8.38;;;6.55;;
64873;SDS011;51367;45.204;38.576;2023-03-23T15:19:40;5.60;;;4.15;;
64873;SDS011;51367;45.204;38.576;2023-03-23T15:22:20;11.30;;;5.38;;
64873;SDS011;51367;45.204;38.576;2023-03-23T15:25:02;6.70;;;4.35;;
64873;SDS011;51367;45.204;38.576;2023-03-23T15:27:40;10.40;;;9.30;;
64873;SDS011;51367;45.204;38.576;2023-03-23T15:30:13;8.13;;;5.50;;
64873;SDS011;51367;45.204;38.576;2023-03-23T15:32:45;8.13;;;3.97;;
64873;SDS011;51367;45.204;38.576;2023-03-23T15:35:12;5.68;;;4.55;;
64873;SDS011;51367;45.204;38.576;2023-03-23T15:37:42;7.90;;;5.00;;
64873;SDS011;51367;45.204;38.576;2023-03-23T15:42:48;12.90;;;5.05;;
64873;SDS011;51367;45.204;38.576;2023-03-23T15:45:25;9.55;;;6.10;;
64873;SDS011;51367;45.204;38.576;2023-03-23T15:47:52;10.05;;;6.00;;
64873;SDS011;51367;45.204;38.576;2023-03-23T15:50:20;8.82;;;5.13;;
64873;SDS011;51367;45.204;38.576;2023-03-23T15:52:52;7.45;;;6.03;;
64873;SDS011;51367;45.204;38.576;2023-03-23T15:57:56;11.95;;;6.43;;
64873;SDS011;51367;45.204;38.576;2023-03-23T16:00:24;9.95;;;5.53;;
64873;SDS011;51367;45.204;38.576;2023-03-23T16:02:55;10.73;;;7.05;;
64873;SDS011;51367;45.204;38.576;2023-03-23T16:05:25;7.28;;;5.85;;
64873;SDS011;51367;45.204;38.576;2023-03-23T16:07:51;27.48;;;7.85;;
64873;SDS011;51367;45.204;38.576;2023-03-23T16:10:19;14.07;;;10.23;;
64873;SDS011;51367;45.204;38.576;2023-03-23T16:12:46;13.98;;;9.70;;
64873;SDS011;51367;45.204;38.576;2023-03-23T16:15:13;7.85;;;7.05;;
64873;SDS011;51367;45.204;38.576;2023-03-23T16:17:40;41.95;;;8.60;;
64873;SDS011;51367;45.204;38.576;2023-03-23T16:20:13;21.45;;;8.70;;
64873;SDS011;51367;45.204;38.576;2023-03-23T16:22:44;6.88;;;6.18;;
64873;SDS011;51367;45.204;38.576;2023-03-23T16:25:11;9.52;;;8.63;;
64873;SDS011;51367;45.204;38.576;2023-03-23T16:27:37;10.15;;;8.60;;
64873;SDS011;51367;45.204;38.576;2023-03-23T16:30:17;28.00;;;15.95;;
64873;SDS011;51367;45.204;38.576;2023-03-23T16:32:46;47.35;;;19.75;;
64873;SDS011;51367;45.204;38.576;2023-03-23T16:35:13;22.35;;;18.23;;
64873;SDS011;51367;45.204;38.576;2023-03-23T16:37:44;40.38;;;22.73;;
64873;SDS011;51367;45.204;38.576;2023-03-23T16:40:11;23.67;;;20.13;;
64873;SDS011;51367;45.204;38.576;2023-03-23T16:42:38;24.77;;;17.17;;
64873;SDS011;51367;45.204;38.576;2023-03-23T16:45:04;15.35;;;11.73;;
64873;SDS011;51367;45.204;38.576;2023-03-23T16:47:31;11.25;;;8.90;;
64873;SDS011;51367;45.204;38.576;2023-03-23T16:49:57;26.10;;;8.60;;
64873;SDS011;51367;45.204;38.576;2023-03-23T16:52:23;12.65;;;9.43;;
64873;SDS011;51367;45.204;38.576;2023-03-23T16:54:49;13.00;;;7.60;;
64873;SDS011;51367;45.204;38.576;2023-03-23T16:57:15;15.88;;;7.15;;
64873;SDS011;51367;45.204;38.576;2023-03-23T16:59:41;10.45;;;7.15;;
64873;SDS011;51367;45.204;38.576;2023-03-23T17:02:08;9.27;;;7.50;;
64873;SDS011;51367;45.204;38.576;2023-03-23T17:04:35;8.18;;;7.28;;
64873;SDS011;51367;45.204;38.576;2023-03-23T17:07:02;8.77;;;7.18;;
64873;SDS011;51367;45.204;38.576;2023-03-23T17:09:28;9.07;;;6.00;;
64873;SDS011;51367;45.204;38.576;2023-03-23T17:11:54;8.15;;;6.32;;
64873;SDS011;51367;45.204;38.576;2023-03-23T17:14:20;6.72;;;5.82;;
64873;SDS011;51367;45.204;38.576;2023-03-23T17:16:46;9.07;;;6.82;;
64873;SDS011;51367;45.204;38.576;2023-03-23T17:19:13;17.13;;;7.03;;